createdAt,value
2023-02-24T00:01:14.552Z,9.00
2023-02-24T00:03:41.236Z,8.70
2023-02-24T00:06:07.860Z,8.70
2023-02-24T00:08:34.576Z,8.80
2023-02-24T00:11:01.201Z,8.90
2023-02-24T00:13:27.899Z,9.00
2023-02-24T00:15:54.650Z,9.10
2023-02-24T00:18:21.368Z,8.30
2023-02-24T01:01:53.218Z,7.80
2023-02-24T01:04:20.081Z,7.80
2023-02-24T01:06:47.106Z,7.90
2023-02-24T01:09:13.856Z,8.00
2023-02-24T01:25:22.083Z,7.60
2023-02-24T01:27:48.835Z,7.80
2023-02-24T01:30:16.410Z,7.80
2023-02-24T01:32:43.440Z,7.90
2023-02-24T01:35:10.261Z,7.90
2023-02-24T01:37:36.947Z,7.90
2023-02-24T01:40:03.737Z,7.60
2023-02-24T01:42:30.465Z,7.70
2023-02-24T01:44:57.213Z,7.50
2023-02-24T01:47:23.933Z,7.10
2023-02-24T01:49:50.624Z,7.00
2023-02-24T01:52:17.404Z,7.30
2023-02-24T01:54:44.105Z,7.50
2023-02-24T01:57:10.770Z,7.40
2023-02-24T01:59:37.526Z,7.60
2023-02-24T02:02:04.421Z,7.70
2023-02-24T02:04:31.410Z,7.80
2023-02-24T02:06:58.169Z,7.80
2023-02-24T02:09:24.819Z,7.80
2023-02-24T02:11:51.526Z,7.90
2023-02-24T02:14:18.271Z,7.90
2023-02-24T02:16:44.947Z,7.60
2023-02-24T02:19:11.641Z,7.30
2023-02-24T02:21:38.316Z,7.10
2023-02-24T02:24:05.015Z,7.30
2023-02-24T02:26:31.817Z,7.50
2023-02-24T02:28:58.494Z,7.60
2023-02-24T02:31:25.719Z,7.50
2023-02-24T02:33:52.797Z,7.50
2023-02-24T02:36:19.545Z,7.60
2023-02-24T02:38:46.211Z,7.60
2023-02-24T02:41:13.006Z,7.60
2023-02-24T02:43:39.707Z,7.80
2023-02-24T02:46:06.425Z,7.80
2023-02-24T02:48:33.243Z,7.70
2023-02-24T02:50:59.925Z,7.80
2023-02-24T02:53:26.582Z,7.40
2023-02-24T02:55:53.321Z,7.60
2023-02-24T02:58:20.034Z,7.20
2023-02-24T03:00:46.830Z,7.40
2023-02-24T03:03:13.524Z,7.30
2023-02-24T03:05:40.260Z,6.80
2023-02-24T03:08:06.944Z,6.70
2023-02-24T03:10:33.647Z,7.10
2023-02-24T03:13:00.367Z,7.30
2023-02-24T03:15:27.047Z,7.60
2023-02-24T03:17:53.809Z,7.80
2023-02-24T03:20:20.606Z,7.60
2023-02-24T03:22:47.386Z,7.70
2023-02-24T03:25:14.042Z,7.90
2023-02-24T03:27:40.855Z,7.70
2023-02-24T03:30:07.603Z,7.90
2023-02-24T03:32:34.367Z,7.70
2023-02-24T03:35:01.136Z,7.90
2023-02-24T03:37:27.902Z,7.60
2023-02-24T03:39:54.700Z,7.40
2023-02-24T03:42:21.380Z,7.70
2023-02-24T03:44:48.147Z,7.20
2023-02-24T03:47:14.921Z,7.30
2023-02-24T03:49:41.647Z,7.50
2023-02-24T03:52:08.450Z,7.70
2023-02-24T03:54:35.153Z,7.70
2023-02-24T03:57:01.944Z,7.80
2023-02-24T03:59:28.671Z,7.70
2023-02-24T04:01:55.405Z,7.20
2023-02-24T04:04:22.167Z,7.40
2023-02-24T04:06:48.853Z,7.60
2023-02-24T04:09:15.599Z,7.40
2023-02-24T04:11:42.309Z,7.20
2023-02-24T04:14:08.958Z,7.20
2023-02-24T04:16:35.658Z,7.50
2023-02-24T04:19:02.297Z,7.40
2023-02-24T04:21:28.988Z,7.30
2023-02-24T04:23:55.664Z,7.50
2023-02-24T04:26:22.346Z,7.60
2023-02-24T04:28:48.957Z,7.50
2023-02-24T04:31:15.671Z,7.10
2023-02-24T04:33:42.381Z,7.40
2023-02-24T04:36:09.031Z,7.70
2023-02-24T04:38:35.791Z,7.40
2023-02-24T04:41:02.482Z,7.60
2023-02-24T04:43:29.099Z,7.00
2023-02-24T04:45:55.760Z,7.30
2023-02-24T04:48:22.626Z,7.40
2023-02-24T04:50:49.350Z,7.00
2023-02-24T04:53:15.995Z,7.10
2023-02-24T04:55:42.679Z,7.10
2023-02-24T04:58:09.387Z,7.20
2023-02-24T05:00:36.121Z,7.10
2023-02-24T05:03:02.756Z,7.30
2023-02-24T05:05:29.418Z,7.50
2023-02-24T05:07:56.106Z,7.70
2023-02-24T05:10:22.748Z,7.80
2023-02-24T05:12:49.350Z,7.70
2023-02-24T05:15:15.998Z,7.00
2023-02-24T05:17:42.596Z,7.20
2023-02-24T05:20:09.308Z,7.10
2023-02-24T05:22:36.022Z,7.40
2023-02-24T05:25:02.688Z,7.40
2023-02-24T05:27:29.338Z,7.60
2023-02-24T05:29:56.008Z,7.30
2023-02-24T05:32:22.890Z,7.50
2023-02-24T05:34:49.628Z,7.40
2023-02-24T05:37:16.340Z,7.40
2023-02-24T05:39:43.005Z,7.30
2023-02-24T05:42:09.662Z,7.40
2023-02-24T05:44:36.287Z,7.50
2023-02-24T05:47:03.113Z,7.70
2023-02-24T05:49:29.846Z,7.40
2023-02-24T05:51:56.901Z,7.40
2023-02-24T05:54:23.524Z,7.50
2023-02-24T05:56:50.163Z,7.40
2023-02-24T05:59:16.825Z,7.40
2023-02-24T06:01:43.550Z,7.40
2023-02-24T06:04:10.241Z,7.60
2023-02-24T06:06:36.863Z,7.60
2023-02-24T06:09:03.581Z,7.70
2023-02-24T06:11:30.247Z,7.90
2023-02-24T06:13:56.840Z,8.00
2023-02-24T06:16:23.493Z,8.00
2023-02-24T06:18:50.139Z,8.00
2023-02-24T06:21:16.870Z,7.90
2023-02-24T06:23:43.527Z,7.70
2023-02-24T06:26:10.181Z,7.50
2023-02-24T06:28:36.844Z,7.70
2023-02-24T06:31:03.463Z,7.40
2023-02-24T06:33:30.399Z,7.60
2023-02-24T06:35:57.029Z,7.60
2023-02-24T06:38:23.675Z,7.10
2023-02-24T06:40:50.332Z,7.10
2023-02-24T06:43:17.282Z,7.30
2023-02-24T06:45:44.029Z,7.00
2023-02-24T06:48:10.671Z,7.50
2023-02-24T06:50:37.323Z,7.80
2023-02-24T06:53:04.003Z,8.00
2023-02-24T06:55:30.680Z,8.30
2023-02-24T06:57:57.381Z,8.30
2023-02-24T07:00:24.061Z,8.60
2023-02-24T07:02:50.672Z,8.80
2023-02-24T07:05:17.484Z,8.80
2023-02-24T07:07:44.137Z,8.70
2023-02-24T07:10:10.743Z,8.90
2023-02-24T07:12:37.428Z,9.00
2023-02-24T07:15:04.128Z,9.20
2023-02-24T07:17:30.746Z,8.90
2023-02-24T07:19:57.469Z,9.20
2023-02-24T07:22:24.153Z,9.20
2023-02-24T07:24:50.850Z,9.30
2023-02-24T07:27:17.528Z,9.40
2023-02-24T07:29:44.199Z,9.50
2023-02-24T07:32:11.061Z,9.70
2023-02-24T07:34:37.830Z,9.70
2023-02-24T07:37:04.519Z,9.80
2023-02-24T07:39:31.261Z,9.80
2023-02-24T07:41:59.740Z,9.60
2023-02-24T07:44:26.396Z,9.40
2023-02-24T07:46:53.066Z,9.10
2023-02-24T07:49:19.781Z,9.40
2023-02-24T07:51:46.479Z,9.40
2023-02-24T07:54:13.320Z,9.60
2023-02-24T07:56:40.063Z,9.90
2023-02-24T07:59:06.692Z,9.90
2023-02-24T08:01:33.354Z,10.40
2023-02-24T08:03:59.982Z,10.60
2023-02-24T08:06:26.650Z,10.70
2023-02-24T08:08:53.288Z,10.80
2023-02-24T08:11:20.242Z,10.80
2023-02-24T08:13:46.958Z,10.90
2023-02-24T08:16:13.688Z,11.00
2023-02-24T08:18:40.354Z,11.10
2023-02-24T08:21:06.982Z,11.20
2023-02-24T08:23:33.612Z,11.20
2023-02-24T08:26:00.380Z,10.80
2023-02-24T08:28:27.096Z,10.60
2023-02-24T08:30:53.897Z,10.70
2023-02-24T08:33:20.721Z,10.80
2023-02-24T08:35:47.407Z,11.00
2023-02-24T08:38:14.059Z,11.30
2023-02-24T08:40:40.699Z,11.30
2023-02-24T08:43:07.445Z,11.30
2023-02-24T08:45:34.087Z,11.00
2023-02-24T08:48:00.782Z,11.40
2023-02-24T08:50:27.525Z,11.70
2023-02-24T08:52:54.285Z,11.80
2023-02-24T08:55:20.958Z,11.90
2023-02-24T08:57:47.629Z,12.00
2023-02-24T09:00:14.272Z,12.10
2023-02-24T09:02:40.969Z,12.30
2023-02-24T09:05:07.716Z,12.50
2023-02-24T09:07:34.389Z,12.40
2023-02-24T09:10:01.050Z,12.50
2023-02-24T09:12:27.681Z,12.50
2023-02-24T09:14:54.378Z,12.10
2023-02-24T09:17:21.090Z,12.50
2023-02-24T09:19:47.797Z,12.70
2023-02-24T09:22:21.294Z,13.10
2023-02-24T09:24:48.313Z,13.20
2023-02-24T09:27:14.971Z,13.50
2023-02-24T09:29:41.657Z,13.20
2023-02-24T09:32:09.457Z,13.30
2023-02-24T09:34:36.171Z,12.90
2023-02-24T09:37:02.930Z,12.80
2023-02-24T09:39:29.843Z,13.00
2023-02-24T09:41:56.599Z,13.10
2023-02-24T09:44:23.305Z,13.20
2023-02-24T09:46:50.133Z,13.40
2023-02-24T09:49:16.775Z,13.50
2023-02-24T09:51:43.463Z,13.70
2023-02-24T09:54:10.163Z,13.70
2023-02-24T09:56:36.844Z,13.50
2023-02-24T09:59:03.529Z,13.50
2023-02-24T10:01:30.273Z,13.30
2023-02-24T10:03:56.982Z,13.30
2023-02-24T10:06:23.669Z,13.80
2023-02-24T10:08:50.309Z,14.10
2023-02-24T10:11:16.938Z,14.20
2023-02-24T10:13:43.586Z,14.40
2023-02-24T10:16:10.256Z,14.50
2023-02-24T10:18:36.934Z,14.50
2023-02-24T10:21:03.757Z,14.10
2023-02-24T10:23:30.457Z,14.00
2023-02-24T10:25:57.128Z,14.30
2023-02-24T10:28:23.795Z,14.60
2023-02-24T10:30:50.529Z,14.40
2023-02-24T10:33:17.248Z,14.60
2023-02-24T10:35:43.966Z,14.90
2023-02-24T10:38:10.640Z,15.00
2023-02-24T10:40:37.449Z,15.20
2023-02-24T10:43:04.100Z,15.20
2023-02-24T10:45:34.676Z,15.10
2023-02-24T10:48:01.645Z,15.10
2023-02-24T10:50:29.812Z,14.90
2023-02-24T10:52:58.681Z,14.90
2023-02-24T10:55:25.532Z,14.80
2023-02-24T10:57:58.964Z,14.70
2023-02-24T11:00:25.978Z,15.00
2023-02-24T11:02:52.677Z,15.00
2023-02-24T11:05:19.372Z,15.10
2023-02-24T11:07:46.019Z,15.00
2023-02-24T11:10:12.739Z,14.80
2023-02-24T11:12:39.358Z,14.70
2023-02-24T11:15:06.072Z,14.80
2023-02-24T11:17:32.749Z,14.70
2023-02-24T11:19:59.454Z,15.00
2023-02-24T11:22:26.188Z,15.10
2023-02-24T11:24:52.829Z,14.90
2023-02-24T11:27:19.553Z,14.70
2023-02-24T11:29:46.220Z,14.40
2023-02-24T11:32:15.225Z,14.40
2023-02-24T11:34:42.255Z,14.70
2023-02-24T11:37:08.870Z,14.70
2023-02-24T11:39:35.470Z,14.80
2023-02-24T11:42:02.093Z,14.90
2023-02-24T11:44:28.801Z,14.70
2023-02-24T11:46:55.415Z,15.10
2023-02-24T11:49:22.136Z,14.80
2023-02-24T11:51:48.768Z,14.80
2023-02-24T11:54:15.472Z,14.90
2023-02-24T11:56:42.096Z,15.20
2023-02-24T11:59:08.831Z,15.90
2023-02-24T12:01:35.555Z,15.70
2023-02-24T12:04:02.187Z,16.10
2023-02-24T12:06:28.897Z,16.00
2023-02-24T12:08:55.579Z,15.90
2023-02-24T12:11:22.656Z,16.20
2023-02-24T12:13:49.793Z,16.10
2023-02-24T12:16:16.540Z,16.60
2023-02-24T12:18:43.218Z,16.40
2023-02-24T12:21:09.844Z,16.80
2023-02-24T12:23:38.377Z,17.00
2023-02-24T12:26:05.014Z,17.30
2023-02-24T12:28:31.694Z,17.30
2023-02-24T12:30:58.420Z,16.90
2023-02-24T12:33:25.145Z,16.10
2023-02-24T12:35:51.826Z,16.30
2023-02-24T12:38:18.600Z,15.90
2023-02-24T12:40:45.333Z,15.70
2023-02-24T12:43:12.013Z,15.60
2023-02-24T12:45:38.770Z,15.80
2023-02-24T12:48:05.500Z,15.90
2023-02-24T12:50:32.245Z,16.20
2023-02-24T12:52:59.019Z,16.40
2023-02-24T12:55:25.691Z,16.40
2023-02-24T12:57:52.372Z,16.10
2023-02-24T13:00:18.995Z,16.40
2023-02-24T13:02:45.610Z,16.40
2023-02-24T13:05:12.332Z,16.60
2023-02-24T13:07:38.994Z,17.10
2023-02-24T13:10:05.752Z,17.50
2023-02-24T13:12:32.522Z,17.20
2023-02-24T13:14:59.174Z,16.70
2023-02-24T13:17:25.928Z,16.70
2023-02-24T13:19:52.612Z,16.60
2023-02-24T13:22:19.285Z,16.90
2023-02-24T13:24:46.021Z,16.80
2023-02-24T13:27:12.688Z,16.70
2023-02-24T13:29:39.373Z,16.60
2023-02-24T13:32:06.145Z,16.40
2023-02-24T13:34:32.878Z,16.70
2023-02-24T13:36:59.540Z,16.90
2023-02-24T13:39:26.209Z,17.20
2023-02-24T13:41:52.957Z,16.90
2023-02-24T13:44:19.606Z,16.80
2023-02-24T13:46:46.325Z,16.30
2023-02-24T13:49:12.942Z,16.20
2023-02-24T13:51:39.613Z,16.40
2023-02-24T13:54:06.297Z,16.80
2023-02-24T13:56:32.929Z,17.10
2023-02-24T13:58:59.575Z,17.50
2023-02-24T14:01:26.550Z,17.80
2023-02-24T14:03:53.338Z,18.10
2023-02-24T14:06:20.160Z,17.60
2023-02-24T14:08:46.995Z,17.10
2023-02-24T14:11:13.612Z,17.00
2023-02-24T14:13:40.256Z,16.70
2023-02-24T14:16:07.044Z,17.10
2023-02-24T14:18:33.720Z,17.30
2023-02-24T14:21:00.431Z,17.70
2023-02-24T14:23:27.084Z,18.00
2023-02-24T14:25:53.735Z,18.20
2023-02-24T14:28:20.366Z,18.40
2023-02-24T14:30:47.058Z,18.70
2023-02-24T14:33:13.821Z,18.90
2023-02-24T14:35:40.495Z,18.20
2023-02-24T14:38:07.109Z,18.50
2023-02-24T14:40:33.913Z,18.60
2023-02-24T14:43:00.608Z,18.40
2023-02-24T14:45:27.236Z,17.60
2023-02-24T14:47:53.929Z,17.10
2023-02-24T14:50:20.564Z,17.10
2023-02-24T14:52:47.312Z,17.40
2023-02-24T14:55:13.972Z,17.50
2023-02-24T14:57:40.577Z,17.60
2023-02-24T15:00:07.260Z,17.20
2023-02-24T15:02:33.906Z,16.50
2023-02-24T15:05:00.848Z,16.30
2023-02-24T15:07:27.992Z,16.50
2023-02-24T15:09:54.704Z,16.50
2023-02-24T15:12:21.318Z,16.90
2023-02-24T15:14:48.111Z,16.30
2023-02-24T15:17:14.767Z,16.40
2023-02-24T15:19:41.383Z,16.00
2023-02-24T15:22:08.071Z,16.00
2023-02-24T15:24:34.672Z,16.10
2023-02-24T15:27:01.286Z,15.70
2023-02-24T15:29:27.985Z,15.60
2023-02-24T15:31:54.853Z,15.60
2023-02-24T15:34:21.596Z,15.30
2023-02-24T15:36:48.250Z,15.70
2023-02-24T15:39:14.943Z,15.70
2023-02-24T15:41:41.594Z,15.70
2023-02-24T15:44:08.258Z,14.90
2023-02-24T15:46:34.964Z,14.70
2023-02-24T15:49:01.675Z,14.70
2023-02-24T15:51:28.284Z,14.80
2023-02-24T15:53:54.992Z,14.70
2023-02-24T15:56:21.860Z,15.00
2023-02-24T15:58:48.667Z,15.00
2023-02-24T16:01:15.426Z,15.00
2023-02-24T16:03:42.210Z,14.40
2023-02-24T16:06:10.219Z,14.10
2023-02-24T16:08:38.284Z,14.10
2023-02-24T16:11:04.959Z,14.30
2023-02-24T16:13:31.603Z,14.70
2023-02-24T16:15:58.291Z,14.80
2023-02-24T16:18:24.928Z,14.60
2023-02-24T16:20:51.627Z,14.60
2023-02-24T16:23:18.301Z,14.60
2023-02-24T16:25:44.991Z,14.90
2023-02-24T16:28:11.719Z,14.80
2023-02-24T16:30:38.457Z,14.80
2023-02-24T16:33:05.304Z,14.90
2023-02-24T16:35:31.992Z,14.90
2023-02-24T16:37:58.684Z,14.90
2023-02-24T16:40:25.337Z,15.10
2023-02-24T16:42:51.968Z,14.30
2023-02-24T16:45:18.563Z,14.10
2023-02-24T16:47:45.209Z,14.30
2023-02-24T16:50:11.841Z,14.30
2023-02-24T16:52:38.500Z,14.00
2023-02-24T16:55:05.139Z,14.20
2023-02-24T16:57:31.798Z,14.30
2023-02-24T16:59:58.443Z,14.30
2023-02-24T17:02:25.159Z,14.00
2023-02-24T17:04:51.841Z,14.10
2023-02-24T17:07:18.515Z,13.80
2023-02-24T17:09:45.125Z,14.00
2023-02-24T17:12:11.891Z,13.70
2023-02-24T17:14:38.992Z,13.50
2023-02-24T17:17:05.677Z,13.50
2023-02-24T17:19:32.394Z,13.20
2023-02-24T17:21:59.004Z,12.50
2023-02-24T17:24:25.666Z,12.50
2023-02-24T17:26:52.444Z,12.70
2023-02-24T17:29:19.119Z,13.10
2023-02-24T17:31:45.916Z,13.30
2023-02-24T17:34:12.802Z,13.10
2023-02-24T17:36:39.522Z,12.90
2023-02-24T17:39:06.215Z,13.10
2023-02-24T17:41:32.929Z,13.10
2023-02-24T17:43:59.554Z,13.20
2023-02-24T17:46:26.500Z,13.00
2023-02-24T17:48:53.283Z,12.80
2023-02-24T17:51:19.939Z,13.00
2023-02-24T17:53:46.834Z,13.10
2023-02-24T17:56:13.433Z,12.90
2023-02-24T17:58:40.254Z,13.10
2023-02-24T18:01:06.960Z,12.90
2023-02-24T18:03:33.680Z,12.70
2023-02-24T18:06:00.397Z,12.50
2023-02-24T18:08:27.095Z,12.60
2023-02-24T18:10:53.690Z,12.70
2023-02-24T18:13:20.378Z,12.60
2023-02-24T18:15:47.084Z,12.50
2023-02-24T18:18:13.773Z,12.40
2023-02-24T18:20:40.395Z,12.60
2023-02-24T18:23:07.067Z,12.90
2023-02-24T18:25:33.721Z,13.00
2023-02-24T18:28:00.430Z,12.90
2023-02-24T18:30:27.204Z,12.90
2023-02-24T18:32:54.048Z,12.80
2023-02-24T18:35:20.806Z,12.50
2023-02-24T18:37:47.439Z,12.50
2023-02-24T18:40:14.091Z,12.30
2023-02-24T18:42:40.794Z,12.20
2023-02-24T18:45:07.517Z,12.10
2023-02-24T18:47:34.200Z,12.00
2023-02-24T18:50:00.838Z,12.00
2023-02-24T18:52:27.494Z,12.00
2023-02-24T18:54:54.165Z,12.20
2023-02-24T18:57:20.773Z,12.00
2023-02-24T18:59:47.441Z,12.00
2023-02-24T19:02:14.184Z,11.90
2023-02-24T19:04:40.887Z,11.70
2023-02-24T19:07:07.530Z,12.00
2023-02-24T19:09:34.164Z,12.10
2023-02-24T19:12:00.817Z,12.30
2023-02-24T19:14:27.480Z,12.20
2023-02-24T19:16:54.207Z,12.20
2023-02-24T19:19:23.564Z,12.40
2023-02-24T19:21:50.233Z,12.60
2023-02-24T19:24:16.952Z,12.80
2023-02-24T19:26:43.645Z,12.60
2023-02-24T19:29:10.266Z,12.60
2023-02-24T19:31:37.063Z,12.60
2023-02-24T19:34:03.799Z,12.70
2023-02-24T19:36:30.439Z,12.70
2023-02-24T19:38:57.137Z,12.70
2023-02-24T19:41:23.784Z,11.80
2023-02-24T19:43:50.482Z,12.10
2023-02-24T19:46:17.201Z,12.00
2023-02-24T19:48:44.549Z,11.90
2023-02-24T19:51:11.297Z,11.70
2023-02-24T19:53:37.954Z,11.70
2023-02-24T19:56:04.655Z,12.00
2023-02-24T19:58:31.348Z,12.30
2023-02-24T20:00:58.075Z,12.60
2023-02-24T20:03:24.749Z,12.60
2023-02-24T20:05:51.394Z,12.80
2023-02-24T20:08:18.090Z,12.70
2023-02-24T20:10:44.742Z,12.70
2023-02-24T20:13:11.413Z,12.80
2023-02-24T20:15:38.059Z,12.40
2023-02-24T20:18:04.761Z,12.00
2023-02-24T20:20:31.436Z,12.20
2023-02-24T20:22:58.106Z,12.20
2023-02-24T20:25:24.771Z,12.10
2023-02-24T20:27:53.774Z,12.00
2023-02-24T20:30:20.435Z,12.10
2023-02-24T20:32:47.228Z,11.80
2023-02-24T20:35:17.041Z,11.90
2023-02-24T20:37:43.723Z,12.10
2023-02-24T20:40:10.354Z,11.60
2023-02-24T20:42:37.024Z,11.70
2023-02-24T20:45:03.722Z,11.80
2023-02-24T20:47:30.407Z,11.80
2023-02-24T20:49:57.098Z,11.90
2023-02-24T20:52:23.746Z,11.90
2023-02-24T20:54:50.443Z,12.00
2023-02-24T20:57:17.073Z,11.90
2023-02-24T20:59:49.290Z,12.00
2023-02-24T21:02:21.381Z,12.10
2023-02-24T21:04:48.107Z,12.20
2023-02-24T21:07:14.751Z,12.00
2023-02-24T21:09:43.829Z,11.90
2023-02-24T21:12:10.482Z,11.70
2023-02-24T21:14:37.164Z,11.80
2023-02-24T21:17:03.844Z,11.90
2023-02-24T21:19:30.510Z,12.00
2023-02-24T21:21:57.168Z,12.20
2023-02-24T21:24:23.825Z,12.50
2023-02-24T21:26:50.499Z,12.20
2023-02-24T21:29:17.204Z,12.10
2023-02-24T21:31:44.082Z,12.00
2023-02-24T21:34:10.839Z,12.00
2023-02-24T21:36:37.602Z,12.00
2023-02-24T21:39:04.294Z,12.00
2023-02-24T21:41:30.956Z,11.60
2023-02-24T21:43:57.665Z,11.40
2023-02-24T21:46:24.749Z,11.10
2023-02-24T21:48:51.674Z,10.90
2023-02-24T21:51:18.389Z,10.80
2023-02-24T21:53:45.099Z,10.60
2023-02-24T21:56:11.800Z,10.70
2023-02-24T21:58:38.474Z,10.80
2023-02-24T22:01:05.135Z,10.70
2023-02-24T22:03:31.844Z,10.60
2023-02-24T22:05:58.585Z,10.50
2023-02-24T22:08:25.309Z,10.40
2023-02-24T22:10:51.966Z,10.00
2023-02-24T22:13:18.619Z,10.10
2023-02-24T22:15:45.323Z,10.00
2023-02-24T22:18:12.026Z,9.90
2023-02-24T22:20:38.661Z,9.50
2023-02-24T22:23:05.333Z,9.60
2023-02-24T22:25:31.987Z,9.50
2023-02-24T22:27:58.804Z,9.50
2023-02-24T22:30:25.496Z,9.40
2023-02-24T22:32:52.210Z,9.40
2023-02-24T22:35:18.915Z,9.50
2023-02-24T22:37:45.588Z,9.80
2023-02-24T22:40:12.266Z,9.60
2023-02-24T22:42:38.907Z,9.40
2023-02-24T22:45:12.898Z,8.80
2023-02-24T22:47:39.524Z,8.90
2023-02-24T22:50:06.278Z,9.00
2023-02-24T22:52:32.904Z,9.00
2023-02-24T22:54:59.578Z,9.00
2023-02-24T22:57:26.265Z,9.10
2023-02-24T22:59:52.980Z,8.90
2023-02-24T23:02:19.726Z,8.90
2023-02-24T23:04:46.425Z,8.90
2023-02-24T23:07:13.098Z,9.00
2023-02-24T23:09:39.745Z,9.10
2023-02-24T23:12:06.412Z,9.20
2023-02-24T23:14:33.054Z,9.00
2023-02-24T23:16:59.740Z,8.30
2023-02-24T23:19:26.358Z,8.40
2023-02-24T23:21:53.099Z,8.60
2023-02-24T23:24:19.856Z,8.70
2023-02-24T23:26:46.544Z,8.50
2023-02-24T23:29:13.164Z,8.60
2023-02-24T23:31:39.920Z,8.30
2023-02-24T23:34:06.638Z,8.60
2023-02-24T23:36:33.298Z,8.20
2023-02-24T23:38:59.969Z,8.50
2023-02-24T23:41:26.638Z,8.40
2023-02-24T23:43:53.394Z,8.20
2023-02-24T23:46:20.183Z,8.20
2023-02-24T23:48:47.294Z,7.80
2023-02-24T23:51:13.932Z,7.40
2023-02-24T23:53:40.629Z,7.20
2023-02-24T23:56:07.240Z,6.50
2023-02-24T23:58:33.943Z,6.60
